createdAt,value
2022-10-31T00:01:43.040Z,11.23
2022-10-31T00:04:10.917Z,11.21
2022-10-31T00:06:40.146Z,11.19
2022-10-31T00:09:08.086Z,11.17
2022-10-31T00:11:35.963Z,11.13
2022-10-31T00:14:03.948Z,11.14
2022-10-31T00:16:32.255Z,11.14
2022-10-31T00:19:01.685Z,11.17
2022-10-31T00:21:30.462Z,11.15
2022-10-31T00:24:00.680Z,11.14
2022-10-31T00:26:29.206Z,11.14
2022-10-31T00:28:57.092Z,11.22
2022-10-31T00:31:24.917Z,11.23
2022-10-31T00:33:52.910Z,11.19
2022-10-31T00:36:21.386Z,11.20
2022-10-31T00:38:50.015Z,11.21
2022-10-31T00:41:19.789Z,11.20
2022-10-31T00:43:47.881Z,11.12
2022-10-31T00:46:15.717Z,11.11
2022-10-31T00:48:43.559Z,11.09
2022-10-31T00:51:11.806Z,11.10
2022-10-31T00:53:41.232Z,11.15
2022-10-31T00:56:09.239Z,11.16
2022-10-31T00:58:39.019Z,11.16
2022-10-31T01:01:08.577Z,11.08
2022-10-31T01:03:36.755Z,11.06
2022-10-31T01:06:06.461Z,11.09
2022-10-31T01:08:34.907Z,11.07
2022-10-31T01:11:06.067Z,11.08
2022-10-31T01:13:34.622Z,11.09
2022-10-31T01:16:05.734Z,11.09
2022-10-31T01:18:34.803Z,11.10
2022-10-31T01:21:04.062Z,11.09
2022-10-31T01:23:32.357Z,11.07
2022-10-31T01:26:05.822Z,11.06
2022-10-31T01:28:34.334Z,11.05
2022-10-31T01:31:04.663Z,11.06
2022-10-31T01:33:32.782Z,10.98
2022-10-31T01:36:00.889Z,10.97
2022-10-31T01:38:29.337Z,10.91
2022-10-31T01:40:57.183Z,10.89
2022-10-31T01:43:25.191Z,10.88
2022-10-31T01:45:55.555Z,10.89
2022-10-31T01:48:29.296Z,10.79
2022-10-31T01:50:57.682Z,10.71
2022-10-31T01:53:27.071Z,10.61
2022-10-31T01:55:55.289Z,10.53
2022-10-31T01:58:25.385Z,10.46
2022-10-31T02:00:56.523Z,10.45
2022-10-31T02:03:26.152Z,10.41
2022-10-31T02:05:55.525Z,10.42
2022-10-31T02:08:27.554Z,10.43
2022-10-31T02:10:56.420Z,10.45
2022-10-31T02:16:55.136Z,10.53
2022-10-31T02:19:29.845Z,10.48
2022-10-31T02:22:01.297Z,10.44
2022-10-31T02:24:45.079Z,10.42
2022-10-31T02:27:34.669Z,10.40
2022-10-31T02:30:08.934Z,10.43
2022-10-31T02:33:01.674Z,10.46
2022-10-31T02:35:33.409Z,10.43
2022-10-31T02:38:07.161Z,10.38
2022-10-31T02:40:38.590Z,10.38
2022-10-31T02:43:29.608Z,10.37
2022-10-31T02:46:00.352Z,10.37
2022-10-31T02:48:31.463Z,10.35
2022-10-31T02:51:01.806Z,10.35
2022-10-31T02:53:34.160Z,10.34
2022-10-31T02:56:04.236Z,10.29
2022-10-31T02:58:35.136Z,10.28
2022-10-31T03:01:33.975Z,10.30
2022-10-31T03:04:27.756Z,10.23
2022-10-31T03:06:59.634Z,10.17
2022-10-31T03:09:35.108Z,10.16
2022-10-31T03:12:09.511Z,10.14
2022-10-31T03:14:43.295Z,10.11
2022-10-31T03:17:16.957Z,10.08
2022-10-31T03:19:49.016Z,10.05
2022-10-31T03:22:19.365Z,10.10
2022-10-31T03:24:49.758Z,10.04
2022-10-31T03:27:21.071Z,10.03
2022-10-31T03:29:49.462Z,10.00
2022-10-31T03:32:19.457Z,9.97
2022-10-31T03:34:49.696Z,9.93
2022-10-31T03:37:20.348Z,9.93
2022-10-31T03:39:50.161Z,9.89
2022-10-31T03:42:21.068Z,9.88
2022-10-31T03:44:56.015Z,9.86
2022-10-31T03:47:24.537Z,9.84
2022-10-31T03:49:53.977Z,9.82
2022-10-31T03:52:27.050Z,9.87
2022-10-31T03:54:58.486Z,9.85
2022-10-31T03:57:31.961Z,9.88
2022-10-31T04:00:03.289Z,9.83
2022-10-31T04:02:34.830Z,9.81
2022-10-31T04:05:04.787Z,9.81
2022-10-31T04:07:34.819Z,9.82
2022-10-31T04:10:04.722Z,9.83
2022-10-31T04:12:33.093Z,9.83
2022-10-31T04:15:17.876Z,9.82
2022-10-31T04:17:47.637Z,9.82
2022-10-31T04:20:19.271Z,9.81
2022-10-31T04:22:47.249Z,9.76
2022-10-31T04:25:15.081Z,9.77
2022-10-31T04:27:42.909Z,9.81
2022-10-31T04:30:12.043Z,9.81
2022-10-31T04:32:41.925Z,9.79
2022-10-31T04:35:10.005Z,9.78
2022-10-31T04:37:40.056Z,9.82
2022-10-31T04:40:08.934Z,9.80
2022-10-31T04:42:59.901Z,9.76
2022-10-31T04:45:29.558Z,9.77
2022-10-31T04:47:57.602Z,9.76
2022-10-31T04:50:25.686Z,9.74
2022-10-31T04:52:54.885Z,9.73
2022-10-31T04:55:26.972Z,9.72
2022-10-31T04:58:00.984Z,9.74
2022-10-31T05:00:29.261Z,9.73
2022-10-31T05:02:58.719Z,9.73
2022-10-31T05:05:30.236Z,9.76
2022-10-31T05:08:01.052Z,9.76
2022-10-31T05:10:32.174Z,9.75
2022-10-31T05:13:03.561Z,9.72
2022-10-31T05:16:01.170Z,9.71
2022-10-31T05:19:04.219Z,9.67
2022-10-31T05:21:38.128Z,9.76
2022-10-31T05:24:08.352Z,9.87
2022-10-31T05:26:37.002Z,9.90
2022-10-31T05:29:05.460Z,9.95
2022-10-31T05:31:33.442Z,10.13
2022-10-31T05:34:02.505Z,10.28
2022-10-31T05:37:02.174Z,10.20
2022-10-31T05:39:31.480Z,10.23
2022-10-31T05:42:05.030Z,10.21
2022-10-31T05:44:32.899Z,10.12
2022-10-31T05:47:20.979Z,10.17
2022-10-31T05:49:57.442Z,10.44
2022-10-31T05:52:43.674Z,10.77
2022-10-31T05:55:29.537Z,10.99
2022-10-31T05:58:05.823Z,11.14
2022-10-31T06:00:36.319Z,11.17
2022-10-31T06:03:10.479Z,11.38
2022-10-31T06:06:07.823Z,11.49
2022-10-31T06:08:42.238Z,11.59
2022-10-31T06:11:21.054Z,11.74
2022-10-31T06:14:04.258Z,11.91
2022-10-31T06:16:39.682Z,11.98
2022-10-31T06:19:36.627Z,12.00
2022-10-31T06:22:04.654Z,12.06
2022-10-31T06:24:34.389Z,12.13
2022-10-31T06:27:07.938Z,12.18
2022-10-31T06:29:35.916Z,12.16
2022-10-31T06:32:12.044Z,12.18
2022-10-31T06:34:43.716Z,12.19
2022-10-31T06:37:13.304Z,12.22
2022-10-31T06:39:44.477Z,12.27
2022-10-31T06:42:17.337Z,12.29
2022-10-31T06:44:45.503Z,12.25
2022-10-31T06:47:31.969Z,12.45
2022-10-31T06:50:05.756Z,12.59
2022-10-31T06:52:33.604Z,12.66
2022-10-31T06:55:01.416Z,12.72
2022-10-31T06:57:31.185Z,12.86
2022-10-31T06:59:59.154Z,13.01
2022-10-31T07:02:55.129Z,13.04
2022-10-31T07:05:24.742Z,13.04
2022-10-31T07:07:54.704Z,13.14
2022-10-31T07:10:23.377Z,13.18
2022-10-31T07:12:59.137Z,13.21
2022-10-31T07:15:28.016Z,13.30
2022-10-31T07:17:56.032Z,13.42
2022-10-31T07:20:23.921Z,13.41
2022-10-31T07:22:52.022Z,13.41
2022-10-31T07:25:20.432Z,13.42
2022-10-31T07:28:08.683Z,13.43
2022-10-31T07:30:36.759Z,13.45
2022-10-31T07:33:05.934Z,13.46
2022-10-31T07:35:54.078Z,13.44
2022-10-31T07:38:25.262Z,13.51
2022-10-31T07:40:54.596Z,13.65
2022-10-31T07:43:24.688Z,13.68
2022-10-31T07:46:18.565Z,13.74
2022-10-31T07:49:05.232Z,13.81
2022-10-31T07:51:51.532Z,13.83
2022-10-31T07:54:19.360Z,13.89
2022-10-31T07:56:48.038Z,13.84
2022-10-31T07:59:17.312Z,13.97
2022-10-31T08:01:45.147Z,13.92
2022-10-31T08:04:35.864Z,13.92
2022-10-31T08:07:41.703Z,13.94
2022-10-31T08:10:17.885Z,14.13
2022-10-31T08:12:45.956Z,14.06
2022-10-31T08:15:15.544Z,14.16
2022-10-31T08:17:43.490Z,14.03
2022-10-31T08:20:12.677Z,14.15
2022-10-31T08:22:55.081Z,14.19
2022-10-31T08:25:23.022Z,14.20
2022-10-31T08:27:52.525Z,14.27
2022-10-31T08:30:24.004Z,14.15
2022-10-31T08:33:13.758Z,14.32
2022-10-31T08:36:00.405Z,14.46
2022-10-31T08:38:46.776Z,14.45
2022-10-31T08:41:14.735Z,14.38
2022-10-31T08:43:42.722Z,14.41
2022-10-31T08:46:11.980Z,14.45
2022-10-31T08:48:41.885Z,14.37
2022-10-31T08:51:11.504Z,14.42
2022-10-31T08:53:39.375Z,14.58
2022-10-31T08:56:25.697Z,14.61
2022-10-31T08:58:54.918Z,14.63
2022-10-31T09:01:33.724Z,14.68
2022-10-31T09:04:02.042Z,14.66
2022-10-31T09:06:29.961Z,14.61
2022-10-31T09:08:58.048Z,14.77
2022-10-31T09:11:27.111Z,14.74
2022-10-31T09:14:17.516Z,14.73
2022-10-31T09:17:05.398Z,14.67
2022-10-31T09:19:51.041Z,14.72
2022-10-31T09:22:18.983Z,14.80
2022-10-31T09:24:47.015Z,14.84
2022-10-31T09:27:16.802Z,14.93
2022-10-31T09:29:47.476Z,14.97
2022-10-31T09:32:16.745Z,14.95
2022-10-31T09:34:47.541Z,15.00
2022-10-31T09:37:22.256Z,15.00
2022-10-31T09:39:50.859Z,14.98
2022-10-31T09:42:39.435Z,15.05
2022-10-31T09:45:18.385Z,15.08
2022-10-31T09:47:52.527Z,15.11
2022-10-31T09:50:48.774Z,15.02
2022-10-31T09:53:42.313Z,15.08
2022-10-31T09:56:14.068Z,15.02
2022-10-31T09:58:45.209Z,15.14
2022-10-31T10:01:24.491Z,15.15
2022-10-31T10:03:57.107Z,15.15
2022-10-31T10:06:58.039Z,15.13
2022-10-31T10:09:44.156Z,15.18
2022-10-31T10:13:02.224Z,15.31
2022-10-31T10:15:45.300Z,15.27
2022-10-31T10:18:21.473Z,15.20
2022-10-31T10:20:59.578Z,15.23
2022-10-31T10:23:37.759Z,15.40
2022-10-31T10:26:15.895Z,15.50
2022-10-31T10:28:46.825Z,15.36
2022-10-31T10:31:17.208Z,15.62
2022-10-31T10:33:51.806Z,15.50
2022-10-31T10:36:24.904Z,15.55
2022-10-31T10:38:54.821Z,15.32
2022-10-31T10:41:24.395Z,15.38
2022-10-31T10:43:55.120Z,15.46
2022-10-31T10:46:47.414Z,15.52
2022-10-31T10:49:19.284Z,15.46
2022-10-31T10:52:02.772Z,15.37
2022-10-31T10:54:52.063Z,15.42
2022-10-31T10:57:30.169Z,15.30
2022-10-31T10:59:58.194Z,15.04
2022-10-31T11:02:27.594Z,15.07
2022-10-31T11:04:57.420Z,15.19
2022-10-31T11:07:26.596Z,14.97
2022-10-31T11:10:05.938Z,15.04
2022-10-31T11:12:35.492Z,15.08
2022-10-31T11:15:09.857Z,15.15
2022-10-31T11:17:40.364Z,15.18
2022-10-31T11:20:26.920Z,15.13
2022-10-31T11:23:04.155Z,15.31
2022-10-31T11:25:32.091Z,15.03
2022-10-31T11:28:04.094Z,15.09
2022-10-31T11:30:32.809Z,15.02
2022-10-31T11:33:01.069Z,15.14
2022-10-31T11:35:29.603Z,15.10
2022-10-31T11:38:01.463Z,15.16
2022-10-31T11:40:29.527Z,15.04
2022-10-31T11:42:59.993Z,15.07
2022-10-31T11:45:33.538Z,15.01
2022-10-31T11:48:03.397Z,14.94
2022-10-31T11:50:36.039Z,14.81
2022-10-31T11:53:05.466Z,14.78
2022-10-31T11:55:35.191Z,14.82
2022-10-31T11:58:03.906Z,14.69
2022-10-31T12:00:33.641Z,14.70
2022-10-31T12:03:14.472Z,14.86
2022-10-31T12:05:44.106Z,14.89
2022-10-31T12:08:14.734Z,14.73
2022-10-31T12:10:47.623Z,14.58
2022-10-31T12:13:19.483Z,14.55
2022-10-31T12:15:52.704Z,14.49
2022-10-31T12:18:30.492Z,14.37
2022-10-31T12:21:11.511Z,14.43
2022-10-31T12:23:48.394Z,14.32
2022-10-31T12:26:19.740Z,14.47
2022-10-31T12:29:08.998Z,14.30
2022-10-31T12:31:47.782Z,14.28
2022-10-31T12:34:55.499Z,14.26
2022-10-31T12:37:34.302Z,14.24
2022-10-31T12:40:25.952Z,14.17
2022-10-31T12:43:18.432Z,14.17
2022-10-31T12:45:54.159Z,14.14
2022-10-31T12:48:36.442Z,14.14
2022-10-31T12:51:08.789Z,14.23
2022-10-31T12:53:47.598Z,14.28
2022-10-31T12:56:29.425Z,14.33
2022-10-31T12:59:01.721Z,14.25
2022-10-31T13:01:33.373Z,14.29
2022-10-31T13:04:05.302Z,14.27
2022-10-31T13:06:42.026Z,14.20
2022-10-31T13:09:14.237Z,14.23
2022-10-31T13:11:46.290Z,14.22
2022-10-31T13:14:23.244Z,14.07
2022-10-31T13:16:51.361Z,13.94
2022-10-31T13:19:22.319Z,13.98
2022-10-31T13:21:56.830Z,13.76
2022-10-31T13:24:29.307Z,13.85
2022-10-31T13:27:00.632Z,13.86
2022-10-31T13:29:32.843Z,13.82
2022-10-31T13:32:01.942Z,13.79
2022-10-31T13:34:32.655Z,13.79
2022-10-31T13:37:06.521Z,13.75
2022-10-31T13:39:48.844Z,13.88
2022-10-31T13:42:24.737Z,13.81
2022-10-31T13:44:52.595Z,13.91
2022-10-31T13:47:24.928Z,13.97
2022-10-31T13:49:52.873Z,13.87
2022-10-31T13:52:26.279Z,13.83
2022-10-31T13:54:57.644Z,13.78
2022-10-31T13:57:34.667Z,13.88
2022-10-31T14:00:06.087Z,13.85
2022-10-31T14:02:47.331Z,13.91
2022-10-31T14:05:24.470Z,13.78
2022-10-31T14:07:53.685Z,13.70
2022-10-31T14:10:28.828Z,13.72
2022-10-31T14:13:06.364Z,13.69
2022-10-31T14:15:34.401Z,13.61
2022-10-31T14:18:03.921Z,13.58
2022-10-31T14:20:39.149Z,13.56
2022-10-31T14:23:36.873Z,13.64
2022-10-31T14:26:38.143Z,13.65
2022-10-31T14:29:27.230Z,13.79
2022-10-31T14:32:08.455Z,13.65
2022-10-31T14:34:37.812Z,13.49
2022-10-31T14:37:30.416Z,13.58
2022-10-31T14:40:08.550Z,13.50
2022-10-31T14:42:52.045Z,13.43
2022-10-31T14:45:31.107Z,13.43
2022-10-31T14:48:13.704Z,13.30
2022-10-31T14:50:49.402Z,13.38
2022-10-31T14:53:21.882Z,13.41
2022-10-31T14:55:50.713Z,13.33
2022-10-31T14:58:23.002Z,13.38
2022-10-31T15:00:53.803Z,13.29
2022-10-31T15:03:26.624Z,13.29
2022-10-31T15:05:57.945Z,13.32
2022-10-31T15:08:35.436Z,13.34
2022-10-31T15:11:13.124Z,13.27
2022-10-31T15:13:46.124Z,13.26
2022-10-31T15:16:17.233Z,13.32
2022-10-31T15:18:54.900Z,13.29
2022-10-31T15:21:24.496Z,13.28
2022-10-31T15:23:54.237Z,13.29
2022-10-31T15:26:23.468Z,13.22
2022-10-31T15:29:01.846Z,13.14
2022-10-31T15:31:31.935Z,13.36
2022-10-31T15:34:09.088Z,13.34
2022-10-31T15:36:38.725Z,13.19
2022-10-31T15:39:06.731Z,13.16
2022-10-31T15:41:36.495Z,13.17
2022-10-31T15:44:22.941Z,13.18
2022-10-31T15:46:57.272Z,13.19
2022-10-31T15:49:35.129Z,13.25
2022-10-31T15:52:09.273Z,13.20
2022-10-31T15:54:37.929Z,13.15
2022-10-31T15:57:06.482Z,13.17
2022-10-31T15:59:34.443Z,13.16
2022-10-31T16:02:09.952Z,13.17
2022-10-31T16:04:37.951Z,13.14
2022-10-31T16:07:21.816Z,13.16
2022-10-31T16:09:52.367Z,13.16
2022-10-31T16:12:22.607Z,13.16
2022-10-31T16:14:51.253Z,13.09
2022-10-31T16:17:23.011Z,13.07
2022-10-31T16:19:54.872Z,13.05
2022-10-31T16:22:25.932Z,13.03
2022-10-31T16:24:57.593Z,13.03
2022-10-31T16:27:29.483Z,13.07
2022-10-31T16:30:02.268Z,13.05
2022-10-31T16:32:35.561Z,13.06
2022-10-31T16:35:20.103Z,13.00
2022-10-31T16:37:47.906Z,13.02
2022-10-31T16:40:16.622Z,13.01
2022-10-31T16:42:45.418Z,13.00
2022-10-31T16:45:18.200Z,12.99
2022-10-31T16:47:47.485Z,13.01
2022-10-31T16:50:17.839Z,13.13
2022-10-31T16:53:08.391Z,13.00
2022-10-31T16:55:35.921Z,13.00
2022-10-31T16:58:04.238Z,12.96
2022-10-31T17:00:32.683Z,12.92
2022-10-31T17:03:02.208Z,12.93
2022-10-31T17:05:32.891Z,12.89
2022-10-31T17:08:01.264Z,12.89
2022-10-31T17:10:29.429Z,12.99
2022-10-31T17:12:57.957Z,12.96
2022-10-31T17:15:27.671Z,12.99
2022-10-31T17:17:56.221Z,13.00
2022-10-31T17:20:28.245Z,12.96
2022-10-31T17:22:56.985Z,12.99
2022-10-31T17:25:27.323Z,13.00
2022-10-31T17:27:55.202Z,12.99
2022-10-31T17:30:23.977Z,13.07
2022-10-31T17:32:52.149Z,12.95
2022-10-31T17:35:20.603Z,13.00
2022-10-31T17:37:50.159Z,13.02
2022-10-31T17:40:20.593Z,12.97
2022-10-31T17:42:52.380Z,12.92
2022-10-31T17:45:21.308Z,12.90
2022-10-31T17:47:49.853Z,12.89
2022-10-31T17:50:18.640Z,12.86
2022-10-31T17:52:46.778Z,12.83
2022-10-31T17:55:16.747Z,12.88
2022-10-31T17:57:45.189Z,12.79
2022-10-31T18:00:14.787Z,12.78
2022-10-31T18:02:42.740Z,12.83
2022-10-31T18:05:11.029Z,12.81
2022-10-31T18:07:38.899Z,12.75
2022-10-31T18:10:08.032Z,12.78
2022-10-31T18:12:38.517Z,12.73
2022-10-31T18:15:07.404Z,12.79
2022-10-31T18:17:36.960Z,12.82
2022-10-31T18:20:08.410Z,12.82
2022-10-31T18:22:36.238Z,12.78
2022-10-31T18:25:04.654Z,12.80
2022-10-31T18:27:32.598Z,12.79
2022-10-31T18:30:02.043Z,12.88
2022-10-31T18:32:29.910Z,12.87
2022-10-31T18:34:57.752Z,12.86
2022-10-31T18:37:25.560Z,12.89
2022-10-31T18:39:53.576Z,13.02
2022-10-31T18:42:21.376Z,12.96
2022-10-31T18:44:49.212Z,13.04
2022-10-31T18:47:19.178Z,13.02
2022-10-31T18:49:47.004Z,13.02
2022-10-31T18:52:14.779Z,13.07
2022-10-31T18:54:42.723Z,13.00
2022-10-31T18:57:10.509Z,12.92
2022-10-31T18:59:38.491Z,12.90
2022-10-31T19:02:06.478Z,12.94
2022-10-31T19:04:35.803Z,12.89
2022-10-31T19:07:03.682Z,12.89
2022-10-31T19:09:31.906Z,12.87
2022-10-31T19:11:59.691Z,12.90
2022-10-31T19:14:27.544Z,12.90
2022-10-31T19:16:58.326Z,12.93
2022-10-31T19:19:28.962Z,12.81
2022-10-31T19:21:58.187Z,12.84
2022-10-31T19:24:26.094Z,12.84
2022-10-31T19:26:54.205Z,12.83
2022-10-31T19:29:22.124Z,12.82
2022-10-31T19:31:49.955Z,12.89
2022-10-31T19:34:17.841Z,12.84
2022-10-31T19:36:45.756Z,12.87
2022-10-31T19:39:15.290Z,12.88
2022-10-31T19:41:43.158Z,12.99
2022-10-31T19:44:13.372Z,12.98
2022-10-31T19:46:52.708Z,13.07
2022-10-31T19:49:21.511Z,13.06
2022-10-31T19:51:49.438Z,12.96
2022-10-31T19:54:18.905Z,13.00
2022-10-31T19:56:46.834Z,12.98
2022-10-31T19:59:14.919Z,12.99
2022-10-31T20:01:43.010Z,13.03
2022-10-31T20:04:11.210Z,13.02
2022-10-31T20:06:41.101Z,13.09
2022-10-31T20:09:10.668Z,13.05
2022-10-31T20:11:40.244Z,13.06
2022-10-31T20:14:08.882Z,13.11
2022-10-31T20:16:37.068Z,13.17
2022-10-31T20:19:05.372Z,13.15
2022-10-31T20:21:38.114Z,13.22
2022-10-31T20:24:08.364Z,13.25
2022-10-31T20:26:37.945Z,13.24
2022-10-31T20:29:07.347Z,13.16
2022-10-31T20:31:37.113Z,13.15
2022-10-31T20:34:05.233Z,13.23
2022-10-31T20:36:33.116Z,13.25
2022-10-31T20:39:01.401Z,13.32
2022-10-31T20:41:29.487Z,13.26
2022-10-31T20:43:57.468Z,13.21
2022-10-31T20:46:27.906Z,13.23
2022-10-31T20:48:56.412Z,13.22
2022-10-31T20:51:25.777Z,13.26
2022-10-31T20:53:55.079Z,13.28
2022-10-31T20:56:24.840Z,13.32
2022-10-31T20:58:53.515Z,13.30
2022-10-31T21:01:23.330Z,13.42
2022-10-31T21:03:52.931Z,13.38
2022-10-31T21:06:23.187Z,13.47
2022-10-31T21:08:51.754Z,13.56
2022-10-31T21:11:21.322Z,13.45
2022-10-31T21:13:50.094Z,13.48
2022-10-31T21:16:20.057Z,13.46
2022-10-31T21:18:49.176Z,13.73
2022-10-31T21:21:19.678Z,13.57
2022-10-31T21:23:48.044Z,13.57
2022-10-31T21:26:17.717Z,13.61
2022-10-31T21:28:46.073Z,13.67
2022-10-31T21:31:16.118Z,13.68
2022-10-31T21:33:44.948Z,13.73
2022-10-31T21:36:13.395Z,13.67
2022-10-31T21:38:42.624Z,13.73
2022-10-31T21:41:11.905Z,13.80
2022-10-31T21:43:41.085Z,13.75
2022-10-31T21:46:10.502Z,13.73
2022-10-31T21:48:41.344Z,13.79
2022-10-31T21:51:10.733Z,13.85
2022-10-31T21:53:56.628Z,13.90
2022-10-31T21:56:26.315Z,13.86
2022-10-31T21:58:54.957Z,13.81
2022-10-31T22:01:24.467Z,13.89
2022-10-31T22:03:52.489Z,13.86
2022-10-31T22:06:20.473Z,13.90
2022-10-31T22:08:48.492Z,13.99
2022-10-31T22:11:18.545Z,13.92
2022-10-31T22:13:49.331Z,14.03
2022-10-31T22:16:18.367Z,13.94
2022-10-31T22:18:46.440Z,13.89
2022-10-31T22:21:16.088Z,13.89
2022-10-31T22:23:44.528Z,13.86
2022-10-31T22:26:17.217Z,13.90
2022-10-31T22:28:48.655Z,13.86
2022-10-31T22:31:18.208Z,13.85
2022-10-31T22:33:46.552Z,13.94
2022-10-31T22:36:16.967Z,13.84
2022-10-31T22:38:45.854Z,13.91
2022-10-31T22:41:18.022Z,13.91
2022-10-31T22:43:45.978Z,13.83
2022-10-31T22:46:16.343Z,13.85
2022-10-31T22:48:45.799Z,13.84
2022-10-31T22:51:15.452Z,13.79
2022-10-31T22:53:43.726Z,13.74
2022-10-31T22:56:13.030Z,13.79
2022-10-31T22:58:41.025Z,13.82
2022-10-31T23:01:09.510Z,13.82
2022-10-31T23:03:39.546Z,13.81
2022-10-31T23:06:09.019Z,13.72
2022-10-31T23:08:38.114Z,13.62
2022-10-31T23:11:15.176Z,13.58
2022-10-31T23:14:00.480Z,13.65
2022-10-31T23:16:28.304Z,13.56
2022-10-31T23:18:57.515Z,13.61
2022-10-31T23:21:55.075Z,13.54
2022-10-31T23:24:24.649Z,13.58
2022-10-31T23:27:07.770Z,13.53
2022-10-31T23:29:36.131Z,13.55
2022-10-31T23:32:04.879Z,13.51
2022-10-31T23:34:34.109Z,13.49
2022-10-31T23:37:02.085Z,13.42
2022-10-31T23:39:29.966Z,13.50
2022-10-31T23:41:57.858Z,13.42
2022-10-31T23:44:25.670Z,13.44
2022-10-31T23:46:53.524Z,13.44
2022-10-31T23:49:21.640Z,13.46
2022-10-31T23:51:51.112Z,13.37
2022-10-31T23:54:19.185Z,13.43
2022-10-31T23:56:47.009Z,13.42
2022-10-31T23:59:14.838Z,13.33
